Time;durP1;ratioP1;P1;durP2;ratioP2;P2;SDS_P1;SDS_P2;PMS_P1;PMS_P2;Temp;Humidity;BMP_temperature;BMP_pressure;BME280_temperature;BME280_humidity;BME280_pressure;Samples;Min_cycle;Max_cycle;Signal;HPM_P1;HPM_P2
2024/02/01 00:00:46;;;;;;;6.80;1.80;;;;;;;;;;2062185;28;20070;-76
2024/02/01 00:02:05;;;;;;;5.05;2.00;;;;;;;;;;2070283;28;20497;-78
2024/02/01 00:03:25;;;;;;;6.10;1.50;;;;;;;;;;2074217;28;20064;-77
2024/02/01 00:04:43;;;;;;;5.40;1.83;;;;;;;;;;2074168;28;20034;-78
2024/02/01 00:06:03;;;;;;;2.90;1.65;;;;;;;;;;2063757;28;20029;-77
2024/02/01 00:07:22;;;;;;;3.33;1.30;;;;;;;;;;2067789;28;20017;-78
2024/02/01 00:08:41;;;;;;;4.63;2.20;;;;;;;;;;2063724;28;20034;-75
2024/02/01 00:10:00;;;;;;;4.53;1.60;;;;;;;;;;2072057;28;20034;-76
2024/02/01 00:11:19;;;;;;;3.33;1.38;;;;;;;;;;2062169;28;20054;-77
2024/02/01 00:12:38;;;;;;;2.63;1.50;;;;;;;;;;2072016;28;20038;-78
2024/02/01 00:13:57;;;;;;;2.60;1.17;;;;;;;;;;2059041;28;20111;-78
2024/02/01 00:15:16;;;;;;;2.67;1.33;;;;;;;;;;2065574;28;20055;-76
2024/02/01 00:16:35;;;;;;;4.47;1.60;;;;;;;;;;2073514;28;20025;-78
2024/02/01 00:17:55;;;;;;;3.13;1.38;;;;;;;;;;2073035;28;20030;-78
2024/02/01 00:19:14;;;;;;;1.67;1.58;;;;;;;;;;2063168;28;20529;-77
2024/02/01 00:20:35;;;;;;;3.15;1.67;;;;;;;;;;2071169;28;20495;-76
2024/02/01 00:21:54;;;;;;;3.90;1.60;;;;;;;;;;2074612;28;20030;-77
2024/02/01 00:23:13;;;;;;;5.05;1.42;;;;;;;;;;2075363;28;20025;-77
2024/02/01 00:24:32;;;;;;;4.30;1.48;;;;;;;;;;2070997;28;20396;-77
2024/02/01 00:25:51;;;;;;;4.90;1.15;;;;;;;;;;2071091;28;20034;-78
2024/02/01 00:27:10;;;;;;;3.42;1.10;;;;;;;;;;2067079;28;20026;-76
2024/02/01 00:28:30;;;;;;;4.35;1.40;;;;;;;;;;2069109;28;20641;-77
2024/02/01 00:29:50;;;;;;;2.20;1.20;;;;;;;;;;2072353;28;20022;-77
2024/02/01 00:31:08;;;;;;;3.88;1.45;;;;;;;;;;2072974;28;20492;-77
2024/02/01 00:32:28;;;;;;;3.58;1.60;;;;;;;;;;2072315;28;20034;-78
2024/02/01 00:33:46;;;;;;;3.03;1.80;;;;;;;;;;2065251;28;20129;-78
2024/02/01 00:35:06;;;;;;;2.80;1.10;;;;;;;;;;2061483;28;20030;-78
2024/02/01 00:36:25;;;;;;;2.40;1.10;;;;;;;;;;2061687;28;20027;-77
2024/02/01 00:37:44;;;;;;;7.07;1.55;;;;;;;;;;2068706;28;20038;-77
2024/02/01 00:39:03;;;;;;;5.28;1.30;;;;;;;;;;2074819;28;20140;-77
2024/02/01 00:40:22;;;;;;;2.28;1.38;;;;;;;;;;2075135;28;20030;-78
2024/02/01 00:41:41;;;;;;;3.10;0.90;;;;;;;;;;2062515;28;20034;-78
2024/02/01 00:43:02;;;;;;;2.90;1.00;;;;;;;;;;2066558;28;20034;-77
2024/02/01 00:44:21;;;;;;;1.48;0.93;;;;;;;;;;2069706;28;20033;-78
2024/02/01 00:45:40;;;;;;;3.42;0.90;;;;;;;;;;2063825;28;20416;-76
2024/02/01 00:46:59;;;;;;;2.53;0.85;;;;;;;;;;2070117;28;20116;-76
2024/02/01 00:48:18;;;;;;;2.13;0.80;;;;;;;;;;2062048;28;20035;-78
2024/02/01 00:49:37;;;;;;;3.55;0.90;;;;;;;;;;2064158;28;20046;-79
2024/02/01 00:50:56;;;;;;;1.73;0.90;;;;;;;;;;2059018;28;20444;-78
2024/02/01 00:52:15;;;;;;;2.00;1.40;;;;;;;;;;2052705;28;20023;-78
2024/02/01 00:53:34;;;;;;;3.28;0.82;;;;;;;;;;2062716;28;20042;-78
2024/02/01 00:54:52;;;;;;;2.63;0.80;;;;;;;;;;2064080;28;20034;-78
2024/02/01 00:56:11;;;;;;;1.58;1.02;;;;;;;;;;2063510;28;20026;-78
2024/02/01 00:57:31;;;;;;;1.75;0.70;;;;;;;;;;2069639;28;20489;-78
2024/02/01 00:58:50;;;;;;;1.80;0.90;;;;;;;;;;2058721;28;20058;-79
2024/02/01 01:00:10;;;;;;;1.63;0.80;;;;;;;;;;2064342;28;20113;-77
2024/02/01 01:01:29;;;;;;;2.25;1.00;;;;;;;;;;2062826;28;20035;-79
2024/02/01 01:02:48;;;;;;;2.47;0.77;;;;;;;;;;2066401;28;20050;-78
2024/02/01 01:04:07;;;;;;;3.42;1.17;;;;;;;;;;2058386;28;20042;-79
2024/02/01 01:05:26;;;;;;;2.58;0.80;;;;;;;;;;2054275;28;20023;-77
2024/02/01 01:06:45;;;;;;;0.70;0.70;;;;;;;;;;2061243;28;20027;-78
2024/02/01 01:08:04;;;;;;;1.80;0.80;;;;;;;;;;2067610;28;20946;-78
2024/02/01 01:09:23;;;;;;;0.77;0.60;;;;;;;;;;2057900;28;20046;-77
2024/02/01 01:10:42;;;;;;;1.50;0.57;;;;;;;;;;2061642;28;20053;-78
2024/02/01 01:12:02;;;;;;;1.58;0.85;;;;;;;;;;2065363;28;20082;-77
2024/02/01 01:13:20;;;;;;;1.58;0.75;;;;;;;;;;2055379;28;20501;-76
2024/02/01 01:14:39;;;;;;;0.98;0.70;;;;;;;;;;2063200;28;20030;-76
2024/02/01 01:15:58;;;;;;;2.13;0.82;;;;;;;;;;2066800;28;20038;-79
2024/02/01 01:17:17;;;;;;;0.93;0.75;;;;;;;;;;2067678;28;20026;-76
2024/02/01 01:18:36;;;;;;;0.70;0.52;;;;;;;;;;2066734;28;20023;-76
2024/02/01 01:20:02;;;;;;;1.02;0.57;;;;;;;;;;2064725;28;20466;-78
2024/02/01 01:21:21;;;;;;;0.30;0.30;;;;;;;;;;2056315;28;20494;-77
2024/02/01 01:22:40;;;;;;;0.63;0.50;;;;;;;;;;2055182;28;21062;-78
2024/02/01 01:23:59;;;;;;;0.82;0.60;;;;;;;;;;2061399;28;20025;-77
2024/02/01 01:25:18;;;;;;;1.70;0.70;;;;;;;;;;2059061;28;20398;-78
2024/02/01 01:26:37;;;;;;;0.68;0.68;;;;;;;;;;2064595;28;20108;-77
2024/02/01 01:27:56;;;;;;;1.63;0.75;;;;;;;;;;2066393;28;20038;-78
2024/02/01 01:29:15;;;;;;;2.13;0.73;;;;;;;;;;2063622;28;20050;-77
2024/02/01 01:30:34;;;;;;;1.17;0.63;;;;;;;;;;2062700;28;20038;-78
2024/02/01 01:31:53;;;;;;;2.30;0.60;;;;;;;;;;2064499;28;20052;-77
2024/02/01 01:33:12;;;;;;;0.90;0.57;;;;;;;;;;2066751;28;20114;-78
2024/02/01 01:34:31;;;;;;;0.80;0.65;;;;;;;;;;2056660;28;20035;-77
2024/02/01 01:35:51;;;;;;;0.50;0.50;;;;;;;;;;2063435;28;20026;-77
2024/02/01 01:37:10;;;;;;;1.10;0.70;;;;;;;;;;2066136;28;20478;-77
2024/02/01 01:38:29;;;;;;;0.70;0.60;;;;;;;;;;2055321;28;20490;-78
2024/02/01 01:39:49;;;;;;;2.22;0.77;;;;;;;;;;2063431;28;20477;-78
2024/02/01 01:41:07;;;;;;;0.80;0.63;;;;;;;;;;2064277;28;20042;-77
2024/02/01 01:42:26;;;;;;;0.60;0.52;;;;;;;;;;2066691;28;20632;-78
2024/02/01 01:43:47;;;;;;;0.55;0.55;;;;;;;;;;2067827;28;20033;-79
2024/02/01 01:45:06;;;;;;;0.73;0.57;;;;;;;;;;2067727;28;20030;-78
2024/02/01 01:46:25;;;;;;;1.20;0.50;;;;;;;;;;2064021;28;20057;-78
2024/02/01 01:47:44;;;;;;;0.57;0.57;;;;;;;;;;2066811;28;20034;-78
2024/02/01 01:49:04;;;;;;;0.60;0.60;;;;;;;;;;2064808;28;20483;-78
2024/02/01 01:50:23;;;;;;;0.63;0.50;;;;;;;;;;2065207;28;20031;-78
2024/02/01 01:51:42;;;;;;;1.15;0.65;;;;;;;;;;2064126;28;20127;-77
2024/02/01 01:53:01;;;;;;;0.43;0.43;;;;;;;;;;2066123;28;20057;-78
2024/02/01 01:54:22;;;;;;;1.75;0.77;;;;;;;;;;2066532;28;20038;-77
2024/02/01 01:55:42;;;;;;;2.83;0.88;;;;;;;;;;2068295;28;20030;-78
2024/02/01 01:57:01;;;;;;;0.77;0.60;;;;;;;;;;2064441;28;20026;-78
2024/02/01 01:58:21;;;;;;;0.55;0.55;;;;;;;;;;2056754;28;20048;-77
2024/02/01 01:59:40;;;;;;;1.42;0.50;;;;;;;;;;2053851;28;20043;-75
2024/02/01 02:01:00;;;;;;;0.88;0.32;;;;;;;;;;2063330;28;20034;-75
2024/02/01 02:02:19;;;;;;;0.60;0.20;;;;;;;;;;2066977;28;20022;-74
2024/02/01 02:03:38;;;;;;;0.68;0.55;;;;;;;;;;2065327;28;20026;-76
2024/02/01 02:04:59;;;;;;;1.38;0.57;;;;;;;;;;2055498;28;20030;-76
2024/02/01 02:06:18;;;;;;;1.58;0.30;;;;;;;;;;2059601;28;20042;-75
2024/02/01 02:07:37;;;;;;;1.40;0.50;;;;;;;;;;2064455;28;20030;-74
2024/02/01 02:08:57;;;;;;;0.45;0.45;;;;;;;;;;2064909;28;20169;-76
2024/02/01 02:10:17;;;;;;;0.88;0.50;;;;;;;;;;2057408;28;20030;-75
2024/02/01 02:11:36;;;;;;;0.70;0.40;;;;;;;;;;2053968;28;20042;-75
2024/02/01 02:12:55;;;;;;;0.55;0.40;;;;;;;;;;2064381;28;20520;-75
2024/02/01 02:14:14;;;;;;;0.88;0.50;;;;;;;;;;2055908;28;20051;-75
2024/02/01 02:15:33;;;;;;;1.70;0.30;;;;;;;;;;2051903;28;21000;-76
2024/02/01 02:16:53;;;;;;;2.83;0.45;;;;;;;;;;2060480;28;20125;-76
2024/02/01 02:18:13;;;;;;;2.35;0.50;;;;;;;;;;2065743;28;20157;-76
2024/02/01 02:19:31;;;;;;;1.35;0.30;;;;;;;;;;2066203;28;20030;-76
2024/02/01 02:20:51;;;;;;;1.65;0.50;;;;;;;;;;2056624;28;20425;-76
2024/02/01 02:22:12;;;;;;;1.63;0.68;;;;;;;;;;2061844;28;20039;-76
2024/02/01 02:23:34;;;;;;;1.30;0.20;;;;;;;;;;2064285;28;20030;-76
2024/02/01 02:24:54;;;;;;;1.92;0.50;;;;;;;;;;2063499;28;20038;-76
2024/02/01 02:26:12;;;;;;;1.33;0.60;;;;;;;;;;2054609;28;20035;-76
2024/02/01 02:27:31;;;;;;;1.75;0.40;;;;;;;;;;2061109;28;20486;-76
2024/02/01 02:28:50;;;;;;;0.77;0.35;;;;;;;;;;2064133;28;20043;-76
2024/02/01 02:30:11;;;;;;;1.92;0.73;;;;;;;;;;2066166;28;20022;-74
2024/02/01 02:31:30;;;;;;;0.88;0.20;;;;;;;;;;2063345;28;20026;-75
2024/02/01 02:32:49;;;;;;;0.32;0.15;;;;;;;;;;2062221;28;20038;-76
2024/02/01 02:34:08;;;;;;;0.55;0.30;;;;;;;;;;2053419;28;20043;-75
2024/02/01 02:35:28;;;;;;;1.25;0.30;;;;;;;;;;2051645;28;20425;-77
2024/02/01 02:36:47;;;;;;;0.95;0.52;;;;;;;;;;2063361;28;20037;-75
2024/02/01 02:38:08;;;;;;;1.90;0.40;;;;;;;;;;2065864;28;20485;-75
2024/02/01 02:39:26;;;;;;;4.13;0.88;;;;;;;;;;2057851;28;20031;-76
2024/02/01 02:40:45;;;;;;;1.38;0.30;;;;;;;;;;2060235;28;20027;-74
2024/02/01 02:42:04;;;;;;;0.73;0.30;;;;;;;;;;2064975;28;20042;-76
2024/02/01 02:43:24;;;;;;;2.28;0.55;;;;;;;;;;2064621;28;20031;-75
2024/02/01 02:44:44;;;;;;;2.50;0.50;;;;;;;;;;2065194;28;20489;-75
2024/02/01 02:46:02;;;;;;;4.00;0.40;;;;;;;;;;2058782;28;20042;-75
2024/02/01 02:47:22;;;;;;;3.40;0.65;;;;;;;;;;2062618;28;20421;-76
2024/02/01 02:48:41;;;;;;;2.17;0.40;;;;;;;;;;2061436;28;20051;-76
2024/02/01 02:50:00;;;;;;;2.97;0.47;;;;;;;;;;2058549;28;20062;-76
2024/02/01 02:51:19;;;;;;;3.70;0.55;;;;;;;;;;2059420;28;20030;-76
2024/02/01 02:52:39;;;;;;;2.55;0.70;;;;;;;;;;2069227;28;20137;-76
2024/02/01 02:53:58;;;;;;;2.95;0.50;;;;;;;;;;2065417;28;20034;-73
2024/02/01 02:55:17;;;;;;;1.75;0.40;;;;;;;;;;2071353;28;20427;-76
2024/02/01 02:56:36;;;;;;;2.88;0.52;;;;;;;;;;2065559;28;20122;-75
2024/02/01 02:57:57;;;;;;;3.25;0.30;;;;;;;;;;2069766;28;20026;-75
2024/02/01 02:59:17;;;;;;;4.40;0.65;;;;;;;;;;2070658;28;20022;-74
2024/02/01 03:00:36;;;;;;;3.65;0.45;;;;;;;;;;2072421;28;20065;-74
2024/02/01 03:01:55;;;;;;;4.10;0.85;;;;;;;;;;2071556;28;20029;-75
2024/02/01 03:03:14;;;;;;;4.13;0.60;;;;;;;;;;2072194;28;20488;-76
2024/02/01 03:04:34;;;;;;;3.70;0.57;;;;;;;;;;2065504;28;20505;-75
2024/02/01 03:05:53;;;;;;;2.85;0.60;;;;;;;;;;2071847;28;20037;-74
2024/02/01 03:07:12;;;;;;;2.95;0.98;;;;;;;;;;2064703;28;20034;-74
2024/02/01 03:08:30;;;;;;;1.88;0.68;;;;;;;;;;2069467;28;20106;-75
2024/02/01 03:09:50;;;;;;;4.75;1.05;;;;;;;;;;2060475;28;20157;-76
2024/02/01 03:11:12;;;;;;;3.80;0.98;;;;;;;;;;2071910;28;20030;-74
2024/02/01 03:12:32;;;;;;;0.93;0.28;;;;;;;;;;2076816;28;20104;-76
2024/02/01 03:13:50;;;;;;;1.45;0.40;;;;;;;;;;2071280;28;20037;-77
2024/02/01 03:15:11;;;;;;;2.42;0.65;;;;;;;;;;2074951;28;20501;-75
2024/02/01 03:16:30;;;;;;;6.97;0.70;;;;;;;;;;2073812;28;20038;-76
2024/02/01 03:17:49;;;;;;;5.32;0.85;;;;;;;;;;2072677;28;20029;-76
2024/02/01 03:19:11;;;;;;;4.65;0.68;;;;;;;;;;2073238;28;20030;-75
2024/02/01 03:20:31;;;;;;;2.67;1.00;;;;;;;;;;2072330;28;20039;-76
2024/02/01 03:21:55;;;;;;;3.30;0.73;;;;;;;;;;2073452;28;20097;-76
2024/02/01 03:23:16;;;;;;;3.33;0.50;;;;;;;;;;2072607;28;20042;-76
2024/02/01 03:24:35;;;;;;;2.67;0.82;;;;;;;;;;2074513;28;21176;-75
2024/02/01 03:25:58;;;;;;;1.00;0.60;;;;;;;;;;2072468;28;20033;-75
2024/02/01 03:27:17;;;;;;;7.47;1.50;;;;;;;;;;2071852;28;20022;-76
2024/02/01 03:28:39;;;;;;;5.00;0.95;;;;;;;;;;2070597;28;20116;-76
2024/02/01 03:29:58;;;;;;;1.75;0.45;;;;;;;;;;2065034;28;20070;-77
2024/02/01 03:31:18;;;;;;;2.97;0.82;;;;;;;;;;2072023;28;20030;-76
2024/02/01 03:32:36;;;;;;;1.95;0.32;;;;;;;;;;2070692;28;20025;-75
2024/02/01 03:33:56;;;;;;;2.85;0.88;;;;;;;;;;2074543;28;20034;-76
2024/02/01 03:35:16;;;;;;;3.53;0.68;;;;;;;;;;2066317;28;20022;-76
2024/02/01 03:36:35;;;;;;;1.77;1.00;;;;;;;;;;2061700;28;20030;-77
2024/02/01 03:37:54;;;;;;;2.53;0.80;;;;;;;;;;2060534;28;20030;-76
2024/02/01 03:39:22;;;;;;;7.65;1.15;;;;;;;;;;2066816;28;20458;-76
2024/02/01 03:40:42;;;;;;;3.05;0.52;;;;;;;;;;2071048;28;20033;-76
2024/02/01 03:42:00;;;;;;;4.55;0.80;;;;;;;;;;2072227;28;20027;-77
2024/02/01 03:43:19;;;;;;;3.83;0.80;;;;;;;;;;2075108;28;20030;-76
2024/02/01 03:44:39;;;;;;;5.68;1.02;;;;;;;;;;2066506;28;20501;-77
2024/02/01 03:45:58;;;;;;;6.10;0.80;;;;;;;;;;2069634;28;20520;-76
2024/02/01 03:47:17;;;;;;;4.70;1.33;;;;;;;;;;2073361;28;20109;-76
2024/02/01 03:48:36;;;;;;;5.13;0.93;;;;;;;;;;2056820;28;20082;-76
2024/02/01 03:49:57;;;;;;;5.78;0.90;;;;;;;;;;2064051;28;20025;-76
2024/02/01 03:51:17;;;;;;;5.95;1.13;;;;;;;;;;2066127;28;20488;-76
2024/02/01 03:52:37;;;;;;;4.05;0.75;;;;;;;;;;2058937;28;20035;-75
2024/02/01 03:53:57;;;;;;;4.40;1.35;;;;;;;;;;2063935;28;20034;-75
2024/02/01 03:55:16;;;;;;;4.70;0.98;;;;;;;;;;2065010;28;20135;-76
2024/02/01 03:56:35;;;;;;;10.85;1.25;;;;;;;;;;2066837;28;20026;-76
2024/02/01 03:57:59;;;;;;;5.40;1.25;;;;;;;;;;2064546;28;20413;-75
2024/02/01 03:59:18;;;;;;;1.08;0.90;;;;;;;;;;2055511;28;20046;-76
2024/02/01 04:00:38;;;;;;;1.27;0.57;;;;;;;;;;2063545;28;20022;-75
2024/02/01 04:02:03;;;;;;;2.67;0.82;;;;;;;;;;2066483;28;20409;-76
2024/02/01 04:03:22;;;;;;;6.55;1.60;;;;;;;;;;2068086;28;20026;-75
2024/02/01 04:04:48;;;;;;;6.13;1.38;;;;;;;;;;2064694;28;20030;-76
2024/02/01 04:06:07;;;;;;;5.72;1.50;;;;;;;;;;2056708;28;20030;-75
2024/02/01 04:07:26;;;;;;;5.53;1.38;;;;;;;;;;2062282;28;20486;-76
2024/02/01 04:08:45;;;;;;;6.68;1.20;;;;;;;;;;2068315;28;20034;-76
2024/02/01 04:10:05;;;;;;;10.50;1.35;;;;;;;;;;2066933;28;20074;-77
2024/02/01 04:11:24;;;;;;;8.15;1.20;;;;;;;;;;2065942;28;20890;-74
2024/02/01 04:12:43;;;;;;;7.25;1.15;;;;;;;;;;2058639;28;20433;-76
2024/02/01 04:14:02;;;;;;;7.22;1.20;;;;;;;;;;2065136;28;20492;-75
2024/02/01 04:15:21;;;;;;;7.13;1.63;;;;;;;;;;2058627;28;20035;-75
2024/02/01 04:16:40;;;;;;;4.60;1.15;;;;;;;;;;2059565;28;20030;-75
2024/02/01 04:18:00;;;;;;;2.63;1.15;;;;;;;;;;2064116;28;20548;-75
2024/02/01 04:19:19;;;;;;;3.25;0.65;;;;;;;;;;2064493;28;20050;-76
2024/02/01 04:20:39;;;;;;;6.35;1.02;;;;;;;;;;2067620;28;20022;-75
2024/02/01 04:21:58;;;;;;;5.00;1.02;;;;;;;;;;2065327;28;20497;-75
2024/02/01 04:23:19;;;;;;;5.93;1.40;;;;;;;;;;2065846;28;20042;-74
2024/02/01 04:24:38;;;;;;;3.65;1.27;;;;;;;;;;2064421;28;20029;-76
2024/02/01 04:25:57;;;;;;;6.32;1.02;;;;;;;;;;2065005;28;20408;-74
2024/02/01 04:27:18;;;;;;;8.20;1.17;;;;;;;;;;2055578;28;20031;-76
2024/02/01 04:28:37;;;;;;;6.88;1.30;;;;;;;;;;2056328;28;20517;-75
2024/02/01 04:29:56;;;;;;;7.00;2.05;;;;;;;;;;2065285;28;20469;-74
2024/02/01 04:31:15;;;;;;;7.40;1.25;;;;;;;;;;2066386;28;20393;-75
2024/02/01 04:32:34;;;;;;;7.10;1.20;;;;;;;;;;2065417;28;20034;-75
2024/02/01 04:33:57;;;;;;;10.43;1.98;;;;;;;;;;2066606;28;20026;-74
2024/02/01 04:35:17;;;;;;;6.38;1.38;;;;;;;;;;2065162;28;20027;-75
2024/02/01 04:36:36;;;;;;;8.35;1.75;;;;;;;;;;2064586;28;20671;-75
2024/02/01 04:37:55;;;;;;;5.75;0.95;;;;;;;;;;2054858;28;20043;-74
2024/02/01 04:39:14;;;;;;;7.55;1.55;;;;;;;;;;2052052;28;20019;-73
2024/02/01 04:40:33;;;;;;;7.53;1.40;;;;;;;;;;2063950;28;20022;-74
2024/02/01 04:42:13;;;;;;;10.75;2.05;;;;;;;;;;2058235;28;20062;-75
2024/02/01 04:43:33;;;;;;;7.70;1.00;;;;;;;;;;2067386;28;20113;-75
2024/02/01 04:44:57;;;;;;;6.47;1.25;;;;;;;;;;2065042;28;20117;-75
2024/02/01 04:46:17;;;;;;;8.32;1.63;;;;;;;;;;2065618;28;20030;-76
2024/02/01 04:47:36;;;;;;;6.40;0.98;;;;;;;;;;2062974;28;20034;-74
2024/02/01 04:48:55;;;;;;;10.55;1.58;;;;;;;;;;2063852;28;20058;-75
2024/02/01 04:50:14;;;;;;;5.20;1.67;;;;;;;;;;2068358;28;20555;-75
2024/02/01 04:51:33;;;;;;;11.52;2.03;;;;;;;;;;2058656;28;20113;-76
2024/02/01 04:52:51;;;;;;;5.78;1.15;;;;;;;;;;2063909;28;20030;-74
2024/02/01 04:54:10;;;;;;;8.82;1.20;;;;;;;;;;2065527;28;20035;-74
2024/02/01 04:55:29;;;;;;;11.38;1.70;;;;;;;;;;2064762;28;20027;-74
2024/02/01 04:56:49;;;;;;;6.20;1.38;;;;;;;;;;2056389;28;20035;-75
2024/02/01 04:58:08;;;;;;;6.63;0.82;;;;;;;;;;2053659;28;20031;-75
2024/02/01 04:59:27;;;;;;;8.35;1.27;;;;;;;;;;2061697;28;20030;-74
2024/02/01 05:00:47;;;;;;;9.27;1.58;;;;;;;;;;2066419;28;20026;-76
2024/02/01 05:02:06;;;;;;;11.55;1.38;;;;;;;;;;2067111;28;20497;-75
2024/02/01 05:03:25;;;;;;;6.72;1.45;;;;;;;;;;2056904;28;20037;-76
2024/02/01 05:04:45;;;;;;;8.68;1.85;;;;;;;;;;2046599;28;20038;-76
2024/02/01 05:06:07;;;;;;;4.57;1.08;;;;;;;;;;2057177;28;20038;-76
2024/02/01 05:07:26;;;;;;;10.35;1.92;;;;;;;;;;2050205;28;20046;-75
2024/02/01 05:08:45;;;;;;;5.25;1.30;;;;;;;;;;2056754;28;20112;-77
2024/02/01 05:10:04;;;;;;;7.43;1.83;;;;;;;;;;2059675;28;20388;-77
2024/02/01 05:11:23;;;;;;;5.22;1.42;;;;;;;;;;2062028;28;20089;-75
2024/02/01 05:12:42;;;;;;;5.78;1.30;;;;;;;;;;2054165;28;20054;-75
2024/02/01 05:14:09;;;;;;;9.93;1.70;;;;;;;;;;2057863;28;20046;-75
2024/02/01 05:15:28;;;;;;;10.93;1.50;;;;;;;;;;2054376;28;20026;-74
2024/02/01 05:16:49;;;;;;;11.02;2.47;;;;;;;;;;2059234;28;20038;-74
2024/02/01 05:18:08;;;;;;;4.80;0.85;;;;;;;;;;2056547;28;20417;-74
2024/02/01 05:19:27;;;;;;;13.05;2.13;;;;;;;;;;2062977;28;20026;-74
2024/02/01 05:20:49;;;;;;;8.80;1.70;;;;;;;;;;2057003;28;20039;-75
2024/02/01 05:22:07;;;;;;;10.70;1.48;;;;;;;;;;2060940;28;20489;-75
2024/02/01 05:23:27;;;;;;;5.35;1.80;;;;;;;;;;2056185;28;20039;-76
2024/02/01 05:24:46;;;;;;;5.00;1.08;;;;;;;;;;2050397;28;20039;-74
2024/02/01 05:26:04;;;;;;;9.88;1.77;;;;;;;;;;2058370;28;20035;-76
2024/02/01 05:27:23;;;;;;;12.73;1.92;;;;;;;;;;2060382;28;20045;-75
2024/02/01 05:28:42;;;;;;;8.07;1.65;;;;;;;;;;2063813;28;20038;-77
2024/02/01 05:30:02;;;;;;;10.73;1.60;;;;;;;;;;2066921;28;20030;-79
2024/02/01 05:31:21;;;;;;;9.05;1.85;;;;;;;;;;2056605;28;20031;-80
2024/02/01 05:32:52;;;;;;;10.40;1.40;;;;;;;;;;2052086;28;20027;-80
2024/02/01 05:34:11;;;;;;;11.57;1.83;;;;;;;;;;2062589;28;20121;-82
2024/02/01 05:35:33;;;;;;;7.28;1.33;;;;;;;;;;2065245;28;20034;-81
2024/02/01 05:36:53;;;;;;;6.00;1.75;;;;;;;;;;2057169;28;20018;-82
2024/02/01 05:38:12;;;;;;;8.40;1.75;;;;;;;;;;2061822;28;20034;-81
2024/02/01 05:39:31;;;;;;;6.82;1.10;;;;;;;;;;2056693;28;20030;-79
2024/02/01 05:40:50;;;;;;;15.15;1.95;;;;;;;;;;2053599;28;20023;-85
2024/02/01 05:42:13;;;;;;;6.18;1.42;;;;;;;;;;2050271;28;20043;-77
2024/02/01 05:43:32;;;;;;;6.72;1.27;;;;;;;;;;2064317;28;20027;-83
2024/02/01 05:44:51;;;;;;;9.25;1.80;;;;;;;;;;2062955;28;20031;-79
2024/02/01 05:46:14;;;;;;;7.75;1.85;;;;;;;;;;2061590;28;20026;-78
2024/02/01 05:47:32;;;;;;;14.38;2.03;;;;;;;;;;2065787;28;20038;-77
2024/02/01 05:48:53;;;;;;;10.60;1.70;;;;;;;;;;2071586;28;20168;-77
2024/02/01 05:50:14;;;;;;;7.95;1.45;;;;;;;;;;2072870;28;20026;-79
2024/02/01 05:51:33;;;;;;;10.93;1.67;;;;;;;;;;2072969;28;20030;-78
2024/02/01 05:52:52;;;;;;;11.32;1.35;;;;;;;;;;2073335;28;20029;-79
2024/02/01 05:54:11;;;;;;;5.60;1.45;;;;;;;;;;2069193;28;20029;-78
2024/02/01 05:55:30;;;;;;;8.98;2.10;;;;;;;;;;2072674;28;20026;-78
2024/02/01 05:56:49;;;;;;;10.38;1.27;;;;;;;;;;2074674;28;20116;-79
2024/02/01 05:58:08;;;;;;;6.65;0.88;;;;;;;;;;2071438;28;20026;-80
2024/02/01 05:59:27;;;;;;;10.70;2.03;;;;;;;;;;2068253;28;20038;-78
2024/02/01 06:00:46;;;;;;;7.13;1.60;;;;;;;;;;2071685;28;20053;-80
2024/02/01 06:02:05;;;;;;;7.10;1.50;;;;;;;;;;2063901;28;20030;-79
2024/02/01 06:03:25;;;;;;;9.18;1.65;;;;;;;;;;2069650;28;20497;-81
2024/02/01 06:04:45;;;;;;;8.68;2.33;;;;;;;;;;2073374;28;20556;-79
2024/02/01 06:06:04;;;;;;;6.90;1.73;;;;;;;;;;2071490;28;20030;-79
2024/02/01 06:07:23;;;;;;;10.98;2.13;;;;;;;;;;2061973;28;20022;-78
2024/02/01 06:08:42;;;;;;;8.80;1.33;;;;;;;;;;2066500;28;20038;-78
2024/02/01 06:10:00;;;;;;;3.85;1.17;;;;;;;;;;2071695;28;20029;-77
2024/02/01 06:11:19;;;;;;;6.28;1.52;;;;;;;;;;2074692;28;20030;-82
2024/02/01 06:12:39;;;;;;;9.27;1.70;;;;;;;;;;2072071;28;20068;-82
2024/02/01 06:13:58;;;;;;;8.05;1.60;;;;;;;;;;2069166;28;20042;-79
2024/02/01 06:15:17;;;;;;;11.30;2.55;;;;;;;;;;2071641;28;20121;-77
2024/02/01 06:16:37;;;;;;;8.98;1.33;;;;;;;;;;2061693;28;20070;-79
2024/02/01 06:17:56;;;;;;;8.43;1.95;;;;;;;;;;2067936;28;21137;-79
2024/02/01 06:19:15;;;;;;;5.15;1.27;;;;;;;;;;2064425;28;20038;-79
2024/02/01 06:20:34;;;;;;;8.07;2.08;;;;;;;;;;2068569;28;20017;-76
2024/02/01 06:21:53;;;;;;;4.75;1.02;;;;;;;;;;2063776;28;20034;-77
2024/02/01 06:23:12;;;;;;;9.52;1.45;;;;;;;;;;2059458;28;20030;-76
2024/02/01 06:24:32;;;;;;;5.75;1.48;;;;;;;;;;2059388;28;20113;-77
2024/02/01 06:25:51;;;;;;;7.75;1.60;;;;;;;;;;2065634;28;20057;-77
2024/02/01 06:27:10;;;;;;;11.35;2.00;;;;;;;;;;2072897;28;20029;-77
2024/02/01 06:28:29;;;;;;;7.20;1.50;;;;;;;;;;2072687;28;20488;-77
2024/02/01 06:29:48;;;;;;;12.05;1.80;;;;;;;;;;2070993;28;20045;-78
2024/02/01 06:31:13;;;;;;;3.90;1.52;;;;;;;;;;2073195;28;20033;-77
2024/02/01 06:32:32;;;;;;;10.20;1.80;;;;;;;;;;2070075;28;20033;-78
2024/02/01 06:33:51;;;;;;;5.25;1.75;;;;;;;;;;2070980;28;20046;-78
2024/02/01 06:35:16;;;;;;;9.85;1.48;;;;;;;;;;2070468;28;20060;-76
2024/02/01 06:36:40;;;;;;;10.15;1.63;;;;;;;;;;2065076;28;20034;-78
2024/02/01 06:38:14;;;;;;;5.35;1.83;;;;;;;;;;2057547;28;20031;-77
2024/02/01 06:41:17;;;;;;;4.15;0.77;;;;;;;;;;2071088;28;20030;-77
2024/02/01 06:42:54;;;;;;;7.55;1.30;;;;;;;;;;2064312;28;20049;-78
2024/02/01 06:44:26;;;;;;;5.80;1.08;;;;;;;;;;2063440;28;20062;-78
2024/02/01 06:45:47;;;;;;;6.45;1.38;;;;;;;;;;2068768;28;20120;-76
2024/02/01 06:47:11;;;;;;;9.85;1.50;;;;;;;;;;2069217;28;20033;-77
2024/02/01 06:48:41;;;;;;;7.05;1.70;;;;;;;;;;2069588;28;20054;-77
2024/02/01 06:50:09;;;;;;;9.82;1.77;;;;;;;;;;2062623;28;20401;-78
2024/02/01 06:51:33;;;;;;;8.88;1.77;;;;;;;;;;2060882;28;20042;-78
2024/02/01 06:52:56;;;;;;;11.25;1.58;;;;;;;;;;2066720;28;20412;-78
2024/02/01 06:54:38;;;;;;;12.13;1.95;;;;;;;;;;2062505;28;20042;-78
2024/02/01 06:55:57;;;;;;;11.32;1.20;;;;;;;;;;2069233;28;20029;-78
2024/02/01 06:57:18;;;;;;;9.45;1.42;;;;;;;;;;2067475;28;20337;-78
2024/02/01 06:58:47;;;;;;;6.00;1.40;;;;;;;;;;2071841;28;20042;-78
2024/02/01 07:00:27;;;;;;;3.75;0.70;;;;;;;;;;2075227;28;20025;-77
2024/02/01 07:02:02;;;;;;;7.13;1.33;;;;;;;;;;2070381;28;20194;-77
2024/02/01 07:04:55;;;;;;;8.90;1.80;;;;;;;;;;2072674;28;20038;-77
2024/02/01 07:06:25;;;;;;;6.55;1.27;;;;;;;;;;2071897;28;20041;-78
2024/02/01 07:07:46;;;;;;;5.68;1.85;;;;;;;;;;2065824;28;20022;-78
2024/02/01 07:09:27;;;;;;;5.88;2.20;;;;;;;;;;2062878;28;20030;-77
2024/02/01 07:10:58;;;;;;;8.23;1.02;;;;;;;;;;2072129;28;20038;-78
2024/02/01 07:12:29;;;;;;;5.15;0.98;;;;;;;;;;2074437;28;20458;-78
2024/02/01 07:14:15;;;;;;;3.53;1.00;;;;;;;;;;2073670;28;20041;-78
2024/02/01 07:16:57;;;;;;;7.22;1.20;;;;;;;;;;2071635;28;20034;-77
2024/02/01 07:18:19;;;;;;;8.05;1.10;;;;;;;;;;2070133;28;20038;-78
2024/02/01 07:19:56;;;;;;;1.92;0.65;;;;;;;;;;2072735;28;20026;-79
2024/02/01 07:21:30;;;;;;;7.75;1.75;;;;;;;;;;2063257;28;20034;-77
2024/02/01 07:23:03;;;;;;;7.28;0.95;;;;;;;;;;2072825;28;20034;-78
2024/02/01 07:26:24;;;;;;;3.92;0.77;;;;;;;;;;2059877;28;20021;-79
2024/02/01 07:58:52;;;;;;;10.90;1.45;;;;;;;;;;2076207;28;20026;-79
2024/02/01 08:00:17;;;;;;;5.47;1.30;;;;;;;;;;2074333;28;20701;-76
2024/02/01 08:02:01;;;;;;;6.82;0.80;;;;;;;;;;2075100;28;20042;-76
2024/02/01 08:07:54;;;;;;;5.38;1.15;;;;;;;;;;2073740;28;20046;-76
2024/02/01 08:09:13;;;;;;;10.43;1.10;;;;;;;;;;2073993;28;20030;-76
2024/02/01 08:10:33;;;;;;;5.68;1.25;;;;;;;;;;2076955;28;20029;-77
2024/02/01 08:11:52;;;;;;;6.45;1.30;;;;;;;;;;2077379;28;20484;-76
2024/02/01 08:13:12;;;;;;;5.07;1.38;;;;;;;;;;2075471;28;20026;-76
2024/02/01 08:14:31;;;;;;;5.68;1.38;;;;;;;;;;2073609;28;20021;-76
2024/02/01 08:15:55;;;;;;;5.82;1.20;;;;;;;;;;2075354;28;20049;-77
2024/02/01 08:17:14;;;;;;;4.75;0.85;;;;;;;;;;2074408;28;20026;-77
2024/02/01 08:18:37;;;;;;;14.63;1.15;;;;;;;;;;2063455;28;20026;-77
2024/02/01 08:19:56;;;;;;;9.98;1.48;;;;;;;;;;2072702;28;20030;-76
2024/02/01 08:21:14;;;;;;;3.85;1.20;;;;;;;;;;2076944;28;20034;-77
2024/02/01 08:22:33;;;;;;;3.20;1.13;;;;;;;;;;2074776;28;20041;-77
2024/02/01 08:23:54;;;;;;;4.90;1.27;;;;;;;;;;2074003;28;20488;-77
2024/02/01 08:25:14;;;;;;;7.63;1.33;;;;;;;;;;2064782;28;20037;-77
2024/02/01 08:26:37;;;;;;;7.70;1.75;;;;;;;;;;2061839;28;20049;-77
2024/02/01 08:27:57;;;;;;;4.40;1.20;;;;;;;;;;2069285;28;20156;-77
2024/02/01 08:29:18;;;;;;;7.82;1.70;;;;;;;;;;2070526;28;20030;-77
2024/02/01 08:30:37;;;;;;;7.55;1.23;;;;;;;;;;2073373;28;20017;-77
2024/02/01 08:31:56;;;;;;;7.82;1.45;;;;;;;;;;2076230;28;20034;-76
2024/02/01 08:33:15;;;;;;;4.72;0.47;;;;;;;;;;2075726;28;20026;-76
2024/02/01 08:34:38;;;;;;;4.78;1.48;;;;;;;;;;2074868;28;20041;-76
2024/02/01 08:35:58;;;;;;;6.05;0.93;;;;;;;;;;2073567;28;20703;-76
2024/02/01 08:37:17;;;;;;;2.22;0.90;;;;;;;;;;2076901;28;20021;-74
2024/02/01 08:38:37;;;;;;;5.15;1.08;;;;;;;;;;2074111;28;20109;-74
2024/02/01 08:39:58;;;;;;;10.27;1.00;;;;;;;;;;2076117;28;20489;-75
2024/02/01 08:41:17;;;;;;;3.95;1.48;;;;;;;;;;2074808;28;20446;-77
2024/02/01 08:42:36;;;;;;;12.90;1.17;;;;;;;;;;2075917;28;20018;-77
2024/02/01 08:43:55;;;;;;;7.47;1.02;;;;;;;;;;2076548;28;20029;-77